sensor_id;sensor_type;location;lat;lon;timestamp;P1;durP1;ratioP1;P2;durP2;ratioP2
61358;SDS011;47228;46.762;23.598;2023-11-21T00:00:40;43.10;;;28.60;;
61358;SDS011;47228;46.762;23.598;2023-11-21T00:03:28;40.70;;;27.90;;
61358;SDS011;47228;46.762;23.598;2023-11-21T00:05:56;39.30;;;26.60;;
61358;SDS011;47228;46.762;23.598;2023-11-21T00:08:25;38.60;;;26.80;;
61358;SDS011;47228;46.762;23.598;2023-11-21T00:10:53;42.20;;;27.70;;
61358;SDS011;47228;46.762;23.598;2023-11-21T00:13:21;39.80;;;26.40;;
61358;SDS011;47228;46.762;23.598;2023-11-21T00:15:49;37.50;;;26.80;;
61358;SDS011;47228;46.762;23.598;2023-11-21T00:18:17;36.80;;;26.30;;
61358;SDS011;47228;46.762;23.598;2023-11-21T00:20:46;36.40;;;26.10;;
61358;SDS011;47228;46.762;23.598;2023-11-21T00:23:14;38.10;;;26.20;;
61358;SDS011;47228;46.762;23.598;2023-11-21T00:25:42;37.90;;;26.00;;
61358;SDS011;47228;46.762;23.598;2023-11-21T00:28:12;39.40;;;28.30;;
61358;SDS011;47228;46.762;23.598;2023-11-21T00:30:40;39.90;;;27.70;;
61358;SDS011;47228;46.762;23.598;2023-11-21T00:33:08;37.90;;;26.70;;
61358;SDS011;47228;46.762;23.598;2023-11-21T00:35:36;41.30;;;27.90;;
61358;SDS011;47228;46.762;23.598;2023-11-21T00:38:05;38.70;;;26.50;;
61358;SDS011;47228;46.762;23.598;2023-11-21T00:40:32;39.10;;;26.30;;
61358;SDS011;47228;46.762;23.598;2023-11-21T00:43:01;38.10;;;26.70;;
61358;SDS011;47228;46.762;23.598;2023-11-21T00:45:32;36.80;;;26.70;;
61358;SDS011;47228;46.762;23.598;2023-11-21T00:48:00;39.10;;;27.30;;
61358;SDS011;47228;46.762;23.598;2023-11-21T00:50:29;39.40;;;26.90;;
61358;SDS011;47228;46.762;23.598;2023-11-21T00:52:57;37.40;;;26.50;;
61358;SDS011;47228;46.762;23.598;2023-11-21T00:55:26;38.50;;;26.00;;
61358;SDS011;47228;46.762;23.598;2023-11-21T00:57:55;37.50;;;27.10;;
61358;SDS011;47228;46.762;23.598;2023-11-21T01:00:23;42.50;;;27.80;;
61358;SDS011;47228;46.762;23.598;2023-11-21T01:02:51;40.90;;;26.40;;
61358;SDS011;47228;46.762;23.598;2023-11-21T01:05:19;40.60;;;25.90;;
61358;SDS011;47228;46.762;23.598;2023-11-21T01:07:47;38.60;;;25.90;;
61358;SDS011;47228;46.762;23.598;2023-11-21T01:10:16;36.90;;;25.90;;
61358;SDS011;47228;46.762;23.598;2023-11-21T01:12:45;40.30;;;26.60;;
61358;SDS011;47228;46.762;23.598;2023-11-21T01:15:13;41.50;;;27.70;;
61358;SDS011;47228;46.762;23.598;2023-11-21T01:17:41;36.50;;;26.40;;
61358;SDS011;47228;46.762;23.598;2023-11-21T01:20:09;38.20;;;27.00;;
61358;SDS011;47228;46.762;23.598;2023-11-21T01:22:41;41.70;;;27.70;;
61358;SDS011;47228;46.762;23.598;2023-11-21T01:25:10;37.30;;;25.00;;
61358;SDS011;47228;46.762;23.598;2023-11-21T01:27:38;35.90;;;25.70;;
61358;SDS011;47228;46.762;23.598;2023-11-21T01:30:06;37.20;;;26.10;;
61358;SDS011;47228;46.762;23.598;2023-11-21T01:32:37;37.60;;;27.30;;
61358;SDS011;47228;46.762;23.598;2023-11-21T01:35:05;40.30;;;27.10;;
61358;SDS011;47228;46.762;23.598;2023-11-21T01:37:34;39.70;;;26.10;;
61358;SDS011;47228;46.762;23.598;2023-11-21T01:40:02;39.30;;;27.40;;
61358;SDS011;47228;46.762;23.598;2023-11-21T01:42:35;36.40;;;26.30;;
61358;SDS011;47228;46.762;23.598;2023-11-21T01:45:04;35.70;;;26.70;;
61358;SDS011;47228;46.762;23.598;2023-11-21T01:47:33;36.80;;;25.70;;
61358;SDS011;47228;46.762;23.598;2023-11-21T01:50:02;33.90;;;24.90;;
61358;SDS011;47228;46.762;23.598;2023-11-21T01:52:32;35.30;;;25.10;;
61358;SDS011;47228;46.762;23.598;2023-11-21T01:55:04;35.10;;;25.20;;
61358;SDS011;47228;46.762;23.598;2023-11-21T01:57:36;39.20;;;26.10;;
61358;SDS011;47228;46.762;23.598;2023-11-21T02:00:05;33.40;;;24.80;;
61358;SDS011;47228;46.762;23.598;2023-11-21T02:02:46;38.60;;;27.00;;
61358;SDS011;47228;46.762;23.598;2023-11-21T02:05:16;41.00;;;26.80;;
61358;SDS011;47228;46.762;23.598;2023-11-21T02:07:51;44.90;;;27.90;;
61358;SDS011;47228;46.762;23.598;2023-11-21T02:10:20;38.60;;;26.10;;
61358;SDS011;47228;46.762;23.598;2023-11-21T02:12:51;41.90;;;27.40;;
61358;SDS011;47228;46.762;23.598;2023-11-21T02:15:19;41.60;;;27.30;;
61358;SDS011;47228;46.762;23.598;2023-11-21T02:17:48;38.50;;;27.30;;
61358;SDS011;47228;46.762;23.598;2023-11-21T02:20:21;39.70;;;27.00;;
61358;SDS011;47228;46.762;23.598;2023-11-21T02:22:53;39.00;;;25.90;;
61358;SDS011;47228;46.762;23.598;2023-11-21T02:27:59;43.00;;;28.30;;
61358;SDS011;47228;46.762;23.598;2023-11-21T02:30:29;44.30;;;27.70;;
61358;SDS011;47228;46.762;23.598;2023-11-21T02:33:01;42.20;;;28.30;;
61358;SDS011;47228;46.762;23.598;2023-11-21T02:35:30;40.80;;;27.90;;
61358;SDS011;47228;46.762;23.598;2023-11-21T02:37:59;38.50;;;27.10;;
61358;SDS011;47228;46.762;23.598;2023-11-21T02:40:27;40.50;;;27.30;;
61358;SDS011;47228;46.762;23.598;2023-11-21T02:42:57;40.70;;;27.20;;
61358;SDS011;47228;46.762;23.598;2023-11-21T02:45:27;40.10;;;27.10;;
61358;SDS011;47228;46.762;23.598;2023-11-21T02:47:55;40.50;;;27.10;;
61358;SDS011;47228;46.762;23.598;2023-11-21T02:50:26;36.80;;;25.30;;
61358;SDS011;47228;46.762;23.598;2023-11-21T02:52:55;38.00;;;26.70;;
61358;SDS011;47228;46.762;23.598;2023-11-21T02:55:26;38.70;;;26.60;;
61358;SDS011;47228;46.762;23.598;2023-11-21T02:57:57;36.80;;;25.80;;
61358;SDS011;47228;46.762;23.598;2023-11-21T03:00:25;33.90;;;25.60;;
61358;SDS011;47228;46.762;23.598;2023-11-21T03:02:54;41.70;;;28.50;;
61358;SDS011;47228;46.762;23.598;2023-11-21T03:05:24;39.00;;;28.30;;
61358;SDS011;47228;46.762;23.598;2023-11-21T03:07:52;37.70;;;26.00;;
61358;SDS011;47228;46.762;23.598;2023-11-21T03:10:20;45.90;;;29.80;;
61358;SDS011;47228;46.762;23.598;2023-11-21T03:12:48;55.10;;;32.30;;
61358;SDS011;47228;46.762;23.598;2023-11-21T03:15:16;43.40;;;29.60;;
61358;SDS011;47228;46.762;23.598;2023-11-21T03:17:47;41.50;;;27.20;;
61358;SDS011;47228;46.762;23.598;2023-11-21T03:20:17;48.40;;;30.40;;
61358;SDS011;47228;46.762;23.598;2023-11-21T03:22:45;46.10;;;30.60;;
61358;SDS011;47228;46.762;23.598;2023-11-21T03:25:13;38.60;;;26.00;;
61358;SDS011;47228;46.762;23.598;2023-11-21T03:27:43;39.50;;;27.50;;
61358;SDS011;47228;46.762;23.598;2023-11-21T03:30:11;39.60;;;25.70;;
61358;SDS011;47228;46.762;23.598;2023-11-21T03:32:40;42.10;;;26.80;;
61358;SDS011;47228;46.762;23.598;2023-11-21T03:35:08;41.60;;;28.00;;
61358;SDS011;47228;46.762;23.598;2023-11-21T03:37:36;39.30;;;28.50;;
61358;SDS011;47228;46.762;23.598;2023-11-21T03:40:09;41.80;;;28.20;;
61358;SDS011;47228;46.762;23.598;2023-11-21T03:42:38;41.50;;;27.10;;
61358;SDS011;47228;46.762;23.598;2023-11-21T03:45:07;40.60;;;27.70;;
61358;SDS011;47228;46.762;23.598;2023-11-21T03:47:36;38.50;;;25.90;;
61358;SDS011;47228;46.762;23.598;2023-11-21T03:50:04;39.80;;;27.50;;
61358;SDS011;47228;46.762;23.598;2023-11-21T03:52:33;40.50;;;27.10;;
61358;SDS011;47228;46.762;23.598;2023-11-21T03:55:01;38.30;;;25.80;;
61358;SDS011;47228;46.762;23.598;2023-11-21T03:57:30;39.20;;;25.80;;
61358;SDS011;47228;46.762;23.598;2023-11-21T03:59:58;39.20;;;26.70;;
61358;SDS011;47228;46.762;23.598;2023-11-21T04:02:26;35.40;;;25.30;;
61358;SDS011;47228;46.762;23.598;2023-11-21T04:04:56;36.60;;;25.70;;
61358;SDS011;47228;46.762;23.598;2023-11-21T04:07:24;36.40;;;25.10;;
61358;SDS011;47228;46.762;23.598;2023-11-21T04:09:52;33.50;;;23.60;;
61358;SDS011;47228;46.762;23.598;2023-11-21T04:12:21;33.40;;;22.70;;
61358;SDS011;47228;46.762;23.598;2023-11-21T04:14:49;35.10;;;24.60;;
61358;SDS011;47228;46.762;23.598;2023-11-21T04:17:20;34.70;;;24.50;;
61358;SDS011;47228;46.762;23.598;2023-11-21T04:19:48;35.30;;;23.70;;
61358;SDS011;47228;46.762;23.598;2023-11-21T04:22:16;36.00;;;24.70;;
61358;SDS011;47228;46.762;23.598;2023-11-21T04:24:44;34.40;;;24.00;;
61358;SDS011;47228;46.762;23.598;2023-11-21T04:27:12;34.40;;;23.70;;
61358;SDS011;47228;46.762;23.598;2023-11-21T04:29:40;34.40;;;24.10;;
61358;SDS011;47228;46.762;23.598;2023-11-21T04:32:09;31.90;;;22.90;;
61358;SDS011;47228;46.762;23.598;2023-11-21T04:34:37;32.90;;;22.90;;
61358;SDS011;47228;46.762;23.598;2023-11-21T04:37:05;33.10;;;23.10;;
61358;SDS011;47228;46.762;23.598;2023-11-21T04:39:34;34.00;;;23.70;;
61358;SDS011;47228;46.762;23.598;2023-11-21T04:42:02;33.30;;;23.30;;
61358;SDS011;47228;46.762;23.598;2023-11-21T04:44:31;30.90;;;22.20;;
61358;SDS011;47228;46.762;23.598;2023-11-21T04:46:59;31.50;;;23.00;;
61358;SDS011;47228;46.762;23.598;2023-11-21T04:49:27;35.70;;;24.50;;
61358;SDS011;47228;46.762;23.598;2023-11-21T04:51:55;33.50;;;22.80;;
61358;SDS011;47228;46.762;23.598;2023-11-21T04:54:23;35.20;;;23.60;;
61358;SDS011;47228;46.762;23.598;2023-11-21T04:56:55;35.40;;;24.00;;
61358;SDS011;47228;46.762;23.598;2023-11-21T04:59:24;33.50;;;23.60;;
61358;SDS011;47228;46.762;23.598;2023-11-21T05:01:56;33.90;;;21.60;;
61358;SDS011;47228;46.762;23.598;2023-11-21T05:04:25;31.20;;;22.50;;
61358;SDS011;47228;46.762;23.598;2023-11-21T05:06:57;31.20;;;22.70;;
61358;SDS011;47228;46.762;23.598;2023-11-21T05:09:26;31.50;;;23.80;;
61358;SDS011;47228;46.762;23.598;2023-11-21T05:11:58;33.70;;;24.30;;
61358;SDS011;47228;46.762;23.598;2023-11-21T05:14:27;31.70;;;23.50;;
61358;SDS011;47228;46.762;23.598;2023-11-21T05:16:55;31.00;;;22.90;;
61358;SDS011;47228;46.762;23.598;2023-11-21T05:19:23;29.30;;;21.50;;
61358;SDS011;47228;46.762;23.598;2023-11-21T05:21:52;30.00;;;21.30;;
61358;SDS011;47228;46.762;23.598;2023-11-21T05:24:20;29.90;;;21.60;;
61358;SDS011;47228;46.762;23.598;2023-11-21T05:26:48;28.20;;;20.40;;
61358;SDS011;47228;46.762;23.598;2023-11-21T05:29:16;24.80;;;19.60;;
61358;SDS011;47228;46.762;23.598;2023-11-21T05:31:44;26.10;;;20.40;;
61358;SDS011;47228;46.762;23.598;2023-11-21T05:34:12;27.10;;;19.40;;
61358;SDS011;47228;46.762;23.598;2023-11-21T05:36:44;32.80;;;20.30;;
61358;SDS011;47228;46.762;23.598;2023-11-21T05:39:15;25.90;;;19.40;;
61358;SDS011;47228;46.762;23.598;2023-11-21T05:41:45;46.40;;;21.20;;
61358;SDS011;47228;46.762;23.598;2023-11-21T05:44:16;24.40;;;19.20;;
61358;SDS011;47228;46.762;23.598;2023-11-21T05:46:45;25.00;;;19.40;;
61358;SDS011;47228;46.762;23.598;2023-11-21T05:49:14;27.00;;;19.80;;
61358;SDS011;47228;46.762;23.598;2023-11-21T05:51:43;27.30;;;19.90;;
61358;SDS011;47228;46.762;23.598;2023-11-21T05:54:11;30.10;;;20.30;;
61358;SDS011;47228;46.762;23.598;2023-11-21T05:56:39;26.50;;;20.10;;
61358;SDS011;47228;46.762;23.598;2023-11-21T05:59:07;28.90;;;20.30;;
61358;SDS011;47228;46.762;23.598;2023-11-21T06:01:38;27.00;;;19.80;;
61358;SDS011;47228;46.762;23.598;2023-11-21T06:04:06;23.80;;;17.80;;
61358;SDS011;47228;46.762;23.598;2023-11-21T06:06:38;23.40;;;18.70;;
61358;SDS011;47228;46.762;23.598;2023-11-21T06:09:06;25.80;;;19.00;;
61358;SDS011;47228;46.762;23.598;2023-11-21T06:11:36;25.40;;;18.80;;
61358;SDS011;47228;46.762;23.598;2023-11-21T06:14:04;25.90;;;19.30;;
61358;SDS011;47228;46.762;23.598;2023-11-21T06:16:35;30.60;;;20.80;;
61358;SDS011;47228;46.762;23.598;2023-11-21T06:19:03;28.00;;;20.30;;
61358;SDS011;47228;46.762;23.598;2023-11-21T06:21:33;25.50;;;19.00;;
61358;SDS011;47228;46.762;23.598;2023-11-21T06:24:01;27.10;;;19.80;;
61358;SDS011;47228;46.762;23.598;2023-11-21T06:26:29;25.80;;;19.10;;
61358;SDS011;47228;46.762;23.598;2023-11-21T06:28:59;26.50;;;19.70;;
61358;SDS011;47228;46.762;23.598;2023-11-21T06:31:29;28.50;;;20.40;;
61358;SDS011;47228;46.762;23.598;2023-11-21T06:33:57;26.00;;;18.90;;
61358;SDS011;47228;46.762;23.598;2023-11-21T06:36:27;26.40;;;19.50;;
61358;SDS011;47228;46.762;23.598;2023-11-21T06:38:55;27.20;;;18.90;;
61358;SDS011;47228;46.762;23.598;2023-11-21T06:41:23;27.60;;;18.80;;
61358;SDS011;47228;46.762;23.598;2023-11-21T06:43:51;28.80;;;19.60;;
61358;SDS011;47228;46.762;23.598;2023-11-21T06:46:20;25.00;;;18.70;;
61358;SDS011;47228;46.762;23.598;2023-11-21T06:48:49;25.00;;;18.60;;
61358;SDS011;47228;46.762;23.598;2023-11-21T06:51:18;36.30;;;19.30;;
61358;SDS011;47228;46.762;23.598;2023-11-21T06:53:46;30.80;;;17.90;;
61358;SDS011;47228;46.762;23.598;2023-11-21T06:56:18;23.70;;;16.20;;
61358;SDS011;47228;46.762;23.598;2023-11-21T06:58:46;23.80;;;17.40;;
61358;SDS011;47228;46.762;23.598;2023-11-21T07:01:14;21.70;;;16.40;;
61358;SDS011;47228;46.762;23.598;2023-11-21T07:03:42;22.90;;;16.70;;
61358;SDS011;47228;46.762;23.598;2023-11-21T07:06:11;22.30;;;16.30;;
61358;SDS011;47228;46.762;23.598;2023-11-21T07:08:39;22.70;;;16.80;;
61358;SDS011;47228;46.762;23.598;2023-11-21T07:11:07;24.00;;;16.40;;
61358;SDS011;47228;46.762;23.598;2023-11-21T07:13:35;24.90;;;17.60;;
61358;SDS011;47228;46.762;23.598;2023-11-21T07:16:04;25.90;;;16.50;;
61358;SDS011;47228;46.762;23.598;2023-11-21T07:18:32;26.30;;;18.20;;
61358;SDS011;47228;46.762;23.598;2023-11-21T07:21:01;24.40;;;17.10;;
61358;SDS011;47228;46.762;23.598;2023-11-21T07:23:29;24.70;;;17.40;;
61358;SDS011;47228;46.762;23.598;2023-11-21T07:25:58;23.20;;;17.00;;
61358;SDS011;47228;46.762;23.598;2023-11-21T07:28:26;25.90;;;18.20;;
61358;SDS011;47228;46.762;23.598;2023-11-21T07:30:54;22.70;;;16.80;;
61358;SDS011;47228;46.762;23.598;2023-11-21T07:33:22;23.20;;;17.80;;
61358;SDS011;47228;46.762;23.598;2023-11-21T07:35:50;23.40;;;16.80;;
61358;SDS011;47228;46.762;23.598;2023-11-21T07:38:18;23.80;;;16.60;;
61358;SDS011;47228;46.762;23.598;2023-11-21T07:40:46;23.40;;;16.80;;
61358;SDS011;47228;46.762;23.598;2023-11-21T07:43:15;22.10;;;15.40;;
61358;SDS011;47228;46.762;23.598;2023-11-21T07:45:43;21.60;;;15.40;;
61358;SDS011;47228;46.762;23.598;2023-11-21T07:48:14;22.80;;;16.50;;
61358;SDS011;47228;46.762;23.598;2023-11-21T07:50:42;23.00;;;16.10;;
61358;SDS011;47228;46.762;23.598;2023-11-21T07:53:10;22.20;;;15.60;;
61358;SDS011;47228;46.762;23.598;2023-11-21T07:55:38;21.30;;;15.10;;
61358;SDS011;47228;46.762;23.598;2023-11-21T07:58:06;23.00;;;16.00;;
61358;SDS011;47228;46.762;23.598;2023-11-21T08:00:34;24.10;;;16.40;;
61358;SDS011;47228;46.762;23.598;2023-11-21T08:03:02;31.20;;;17.40;;
61358;SDS011;47228;46.762;23.598;2023-11-21T08:05:31;65.00;;;20.80;;
61358;SDS011;47228;46.762;23.598;2023-11-21T08:08:04;25.20;;;15.50;;
61358;SDS011;47228;46.762;23.598;2023-11-21T08:10:33;29.00;;;19.00;;
61358;SDS011;47228;46.762;23.598;2023-11-21T08:13:02;25.00;;;16.30;;
61358;SDS011;47228;46.762;23.598;2023-11-21T08:15:31;34.90;;;18.20;;
61358;SDS011;47228;46.762;23.598;2023-11-21T08:18:00;31.60;;;18.60;;
61358;SDS011;47228;46.762;23.598;2023-11-21T08:20:28;32.40;;;19.80;;
61358;SDS011;47228;46.762;23.598;2023-11-21T08:22:57;32.30;;;19.80;;
61358;SDS011;47228;46.762;23.598;2023-11-21T08:25:25;32.40;;;19.90;;
61358;SDS011;47228;46.762;23.598;2023-11-21T08:27:53;39.60;;;21.80;;
61358;SDS011;47228;46.762;23.598;2023-11-21T08:30:22;38.30;;;20.90;;
61358;SDS011;47228;46.762;23.598;2023-11-21T08:32:51;32.90;;;19.80;;
61358;SDS011;47228;46.762;23.598;2023-11-21T08:35:21;30.70;;;19.50;;
61358;SDS011;47228;46.762;23.598;2023-11-21T08:37:53;30.90;;;19.10;;
61358;SDS011;47228;46.762;23.598;2023-11-21T08:40:21;29.50;;;18.20;;
61358;SDS011;47228;46.762;23.598;2023-11-21T08:42:50;29.80;;;17.70;;
61358;SDS011;47228;46.762;23.598;2023-11-21T08:45:23;29.60;;;18.20;;
61358;SDS011;47228;46.762;23.598;2023-11-21T08:47:52;31.30;;;18.70;;
61358;SDS011;47228;46.762;23.598;2023-11-21T08:50:20;35.90;;;19.10;;
61358;SDS011;47228;46.762;23.598;2023-11-21T08:52:48;34.50;;;19.50;;
61358;SDS011;47228;46.762;23.598;2023-11-21T08:55:17;35.50;;;20.50;;
61358;SDS011;47228;46.762;23.598;2023-11-21T08:57:47;31.40;;;19.40;;
61358;SDS011;47228;46.762;23.598;2023-11-21T09:00:16;31.60;;;19.40;;
61358;SDS011;47228;46.762;23.598;2023-11-21T09:02:45;33.70;;;20.30;;
61358;SDS011;47228;46.762;23.598;2023-11-21T09:05:14;33.20;;;20.30;;
61358;SDS011;47228;46.762;23.598;2023-11-21T09:07:43;33.30;;;20.10;;
61358;SDS011;47228;46.762;23.598;2023-11-21T09:10:14;32.80;;;19.80;;
61358;SDS011;47228;46.762;23.598;2023-11-21T09:12:42;31.30;;;19.40;;
61358;SDS011;47228;46.762;23.598;2023-11-21T09:15:10;32.10;;;18.90;;
61358;SDS011;47228;46.762;23.598;2023-11-21T09:17:40;33.30;;;20.30;;
61358;SDS011;47228;46.762;23.598;2023-11-21T09:20:09;34.80;;;19.30;;
61358;SDS011;47228;46.762;23.598;2023-11-21T09:22:38;34.00;;;19.70;;
61358;SDS011;47228;46.762;23.598;2023-11-21T09:25:07;33.70;;;19.90;;
61358;SDS011;47228;46.762;23.598;2023-11-21T09:27:38;33.10;;;19.60;;
61358;SDS011;47228;46.762;23.598;2023-11-21T09:30:06;30.80;;;18.10;;
61358;SDS011;47228;46.762;23.598;2023-11-21T09:32:38;34.70;;;18.90;;
61358;SDS011;47228;46.762;23.598;2023-11-21T09:35:08;31.50;;;18.70;;
61358;SDS011;47228;46.762;23.598;2023-11-21T09:37:37;31.90;;;19.40;;
61358;SDS011;47228;46.762;23.598;2023-11-21T09:40:07;32.90;;;18.70;;
61358;SDS011;47228;46.762;23.598;2023-11-21T09:42:43;32.10;;;18.70;;
61358;SDS011;47228;46.762;23.598;2023-11-21T09:45:25;35.00;;;21.10;;
61358;SDS011;47228;46.762;23.598;2023-11-21T09:48:01;37.50;;;20.70;;
61358;SDS011;47228;46.762;23.598;2023-11-21T09:50:30;38.20;;;21.60;;
61358;SDS011;47228;46.762;23.598;2023-11-21T09:53:19;39.30;;;21.80;;
61358;SDS011;47228;46.762;23.598;2023-11-21T09:55:50;43.00;;;22.50;;
61358;SDS011;47228;46.762;23.598;2023-11-21T09:58:21;41.40;;;21.80;;
61358;SDS011;47228;46.762;23.598;2023-11-21T10:00:52;38.90;;;22.40;;
61358;SDS011;47228;46.762;23.598;2023-11-21T10:03:21;43.50;;;24.10;;
61358;SDS011;47228;46.762;23.598;2023-11-21T10:05:50;48.90;;;24.90;;
61358;SDS011;47228;46.762;23.598;2023-11-21T10:08:21;43.70;;;24.40;;
61358;SDS011;47228;46.762;23.598;2023-11-21T10:10:52;49.60;;;26.50;;
61358;SDS011;47228;46.762;23.598;2023-11-21T10:13:22;41.20;;;23.20;;
61358;SDS011;47228;46.762;23.598;2023-11-21T10:15:51;45.50;;;24.10;;
61358;SDS011;47228;46.762;23.598;2023-11-21T10:18:21;47.60;;;25.50;;
61358;SDS011;47228;46.762;23.598;2023-11-21T10:20:52;45.20;;;25.10;;
61358;SDS011;47228;46.762;23.598;2023-11-21T10:23:22;49.70;;;26.50;;
61358;SDS011;47228;46.762;23.598;2023-11-21T10:25:52;49.30;;;27.60;;
61358;SDS011;47228;46.762;23.598;2023-11-21T10:28:22;54.90;;;27.60;;
61358;SDS011;47228;46.762;23.598;2023-11-21T10:30:50;51.20;;;26.20;;
61358;SDS011;47228;46.762;23.598;2023-11-21T10:33:21;54.80;;;28.90;;
61358;SDS011;47228;46.762;23.598;2023-11-21T10:35:55;59.70;;;28.60;;
61358;SDS011;47228;46.762;23.598;2023-11-21T10:38:24;54.10;;;27.60;;
61358;SDS011;47228;46.762;23.598;2023-11-21T10:40:54;64.20;;;30.80;;
61358;SDS011;47228;46.762;23.598;2023-11-21T10:43:24;62.10;;;32.10;;
61358;SDS011;47228;46.762;23.598;2023-11-21T10:45:54;73.20;;;32.80;;
61358;SDS011;47228;46.762;23.598;2023-11-21T10:48:27;63.50;;;32.70;;
61358;SDS011;47228;46.762;23.598;2023-11-21T10:50:55;71.80;;;33.60;;
61358;SDS011;47228;46.762;23.598;2023-11-21T10:53:24;76.30;;;34.10;;
61358;SDS011;47228;46.762;23.598;2023-11-21T10:56:01;71.60;;;34.20;;
61358;SDS011;47228;46.762;23.598;2023-11-21T10:58:38;69.60;;;32.40;;
61358;SDS011;47228;46.762;23.598;2023-11-21T11:01:06;81.80;;;35.40;;
61358;SDS011;47228;46.762;23.598;2023-11-21T11:03:35;78.70;;;34.20;;
61358;SDS011;47228;46.762;23.598;2023-11-21T11:06:04;86.00;;;34.40;;
61358;SDS011;47228;46.762;23.598;2023-11-21T11:08:39;60.40;;;29.70;;
61358;SDS011;47228;46.762;23.598;2023-11-21T11:11:08;63.30;;;30.60;;
61358;SDS011;47228;46.762;23.598;2023-11-21T11:13:38;58.30;;;29.50;;
61358;SDS011;47228;46.762;23.598;2023-11-21T11:16:12;57.20;;;29.80;;
61358;SDS011;47228;46.762;23.598;2023-11-21T11:18:45;59.60;;;30.60;;
61358;SDS011;47228;46.762;23.598;2023-11-21T11:21:19;67.00;;;33.00;;
61358;SDS011;47228;46.762;23.598;2023-11-21T11:32:18;72.40;;;35.80;;
61358;SDS011;47228;46.762;23.598;2023-11-21T11:35:09;72.50;;;35.30;;
61358;SDS011;47228;46.762;23.598;2023-11-21T11:37:44;66.30;;;33.20;;
61358;SDS011;47228;46.762;23.598;2023-11-21T11:40:12;69.30;;;33.70;;
61358;SDS011;47228;46.762;23.598;2023-11-21T11:42:55;69.40;;;34.50;;
61358;SDS011;47228;46.762;23.598;2023-11-21T11:45:24;67.40;;;32.30;;
61358;SDS011;47228;46.762;23.598;2023-11-21T11:47:59;63.90;;;32.00;;
61358;SDS011;47228;46.762;23.598;2023-11-21T11:50:28;64.20;;;32.00;;
61358;SDS011;47228;46.762;23.598;2023-11-21T11:53:11;65.00;;;33.10;;
61358;SDS011;47228;46.762;23.598;2023-11-21T11:55:41;72.80;;;36.00;;
61358;SDS011;47228;46.762;23.598;2023-11-21T11:58:09;64.80;;;32.90;;
61358;SDS011;47228;46.762;23.598;2023-11-21T12:00:39;66.60;;;34.00;;
61358;SDS011;47228;46.762;23.598;2023-11-21T12:03:09;73.40;;;35.60;;
61358;SDS011;47228;46.762;23.598;2023-11-21T12:05:38;69.70;;;33.50;;
61358;SDS011;47228;46.762;23.598;2023-11-21T12:08:07;67.30;;;33.00;;
61358;SDS011;47228;46.762;23.598;2023-11-21T12:10:36;70.90;;;34.50;;
61358;SDS011;47228;46.762;23.598;2023-11-21T12:13:07;69.20;;;33.60;;
61358;SDS011;47228;46.762;23.598;2023-11-21T12:15:40;61.50;;;31.00;;
61358;SDS011;47228;46.762;23.598;2023-11-21T12:18:10;66.90;;;33.60;;
61358;SDS011;47228;46.762;23.598;2023-11-21T12:20:38;59.20;;;31.40;;
61358;SDS011;47228;46.762;23.598;2023-11-21T12:23:08;66.10;;;33.60;;
61358;SDS011;47228;46.762;23.598;2023-11-21T12:25:37;69.20;;;31.70;;
61358;SDS011;47228;46.762;23.598;2023-11-21T12:28:09;68.90;;;32.50;;
61358;SDS011;47228;46.762;23.598;2023-11-21T12:30:38;65.20;;;32.50;;
61358;SDS011;47228;46.762;23.598;2023-11-21T12:33:07;62.60;;;33.30;;
61358;SDS011;47228;46.762;23.598;2023-11-21T12:35:38;62.50;;;32.70;;
61358;SDS011;47228;46.762;23.598;2023-11-21T12:38:06;60.70;;;31.40;;
61358;SDS011;47228;46.762;23.598;2023-11-21T12:40:37;62.30;;;32.20;;
61358;SDS011;47228;46.762;23.598;2023-11-21T12:43:06;61.30;;;31.30;;
61358;SDS011;47228;46.762;23.598;2023-11-21T12:45:35;70.60;;;33.40;;
61358;SDS011;47228;46.762;23.598;2023-11-21T12:48:06;65.90;;;32.70;;
61358;SDS011;47228;46.762;23.598;2023-11-21T12:50:39;63.20;;;34.50;;
61358;SDS011;47228;46.762;23.598;2023-11-21T12:53:11;66.20;;;34.30;;
61358;SDS011;47228;46.762;23.598;2023-11-21T12:55:40;65.30;;;33.60;;
61358;SDS011;47228;46.762;23.598;2023-11-21T12:58:10;64.80;;;34.40;;
61358;SDS011;47228;46.762;23.598;2023-11-21T13:00:45;67.70;;;34.10;;
61358;SDS011;47228;46.762;23.598;2023-11-21T13:03:17;62.70;;;32.50;;
61358;SDS011;47228;46.762;23.598;2023-11-21T13:05:48;66.30;;;33.20;;
61358;SDS011;47228;46.762;23.598;2023-11-21T13:08:23;69.00;;;33.20;;
61358;SDS011;47228;46.762;23.598;2023-11-21T13:10:53;70.10;;;34.00;;
61358;SDS011;47228;46.762;23.598;2023-11-21T13:13:24;61.40;;;32.00;;
61358;SDS011;47228;46.762;23.598;2023-11-21T13:15:56;71.30;;;35.30;;
61358;SDS011;47228;46.762;23.598;2023-11-21T13:18:29;67.10;;;34.20;;
61358;SDS011;47228;46.762;23.598;2023-11-21T13:20:59;61.80;;;33.90;;
61358;SDS011;47228;46.762;23.598;2023-11-21T13:23:34;65.60;;;33.30;;
61358;SDS011;47228;46.762;23.598;2023-11-21T13:26:04;65.50;;;33.60;;
61358;SDS011;47228;46.762;23.598;2023-11-21T13:28:35;66.10;;;33.50;;
61358;SDS011;47228;46.762;23.598;2023-11-21T13:31:05;72.30;;;35.20;;
61358;SDS011;47228;46.762;23.598;2023-11-21T13:33:39;77.40;;;37.00;;
61358;SDS011;47228;46.762;23.598;2023-11-21T13:36:11;88.00;;;40.80;;
61358;SDS011;47228;46.762;23.598;2023-11-21T13:38:41;84.70;;;40.20;;
61358;SDS011;47228;46.762;23.598;2023-11-21T13:41:11;94.00;;;41.10;;
61358;SDS011;47228;46.762;23.598;2023-11-21T13:43:42;86.60;;;41.60;;
61358;SDS011;47228;46.762;23.598;2023-11-21T13:46:12;75.00;;;38.90;;
61358;SDS011;47228;46.762;23.598;2023-11-21T13:48:50;82.00;;;39.70;;
61358;SDS011;47228;46.762;23.598;2023-11-21T13:51:23;78.00;;;38.80;;
61358;SDS011;47228;46.762;23.598;2023-11-21T13:54:01;83.90;;;39.20;;
61358;SDS011;47228;46.762;23.598;2023-11-21T13:56:30;74.90;;;37.20;;
61358;SDS011;47228;46.762;23.598;2023-11-21T13:58:59;75.10;;;35.80;;
61358;SDS011;47228;46.762;23.598;2023-11-21T14:01:37;65.20;;;33.40;;
61358;SDS011;47228;46.762;23.598;2023-11-21T14:04:24;78.00;;;38.60;;
61358;SDS011;47228;46.762;23.598;2023-11-21T14:06:58;74.60;;;38.50;;
61358;SDS011;47228;46.762;23.598;2023-11-21T14:09:29;71.50;;;36.30;;
61358;SDS011;47228;46.762;23.598;2023-11-21T14:12:12;79.40;;;37.80;;
61358;SDS011;47228;46.762;23.598;2023-11-21T14:14:43;75.50;;;37.80;;
61358;SDS011;47228;46.762;23.598;2023-11-21T14:17:13;80.20;;;37.90;;
61358;SDS011;47228;46.762;23.598;2023-11-21T14:19:41;83.20;;;38.80;;
61358;SDS011;47228;46.762;23.598;2023-11-21T14:22:12;82.60;;;37.80;;
61358;SDS011;47228;46.762;23.598;2023-11-21T14:24:40;73.10;;;35.50;;
61358;SDS011;47228;46.762;23.598;2023-11-21T14:27:14;75.40;;;36.20;;
61358;SDS011;47228;46.762;23.598;2023-11-21T14:29:43;80.30;;;38.10;;
61358;SDS011;47228;46.762;23.598;2023-11-21T14:32:13;84.30;;;38.70;;
61358;SDS011;47228;46.762;23.598;2023-11-21T14:34:42;74.40;;;36.20;;